sensor_id;sensor_type;location;lat;lon;timestamp;temperature;humidity
75210;DHT22;63796;53.136;14.882;2023-03-01T00:01:17;1.30;99.90
75210;DHT22;63796;53.136;14.882;2023-03-01T00:03:49;1.20;99.90
75210;DHT22;63796;53.136;14.882;2023-03-01T00:06:17;1.10;99.90
75210;DHT22;63796;53.136;14.882;2023-03-01T00:08:44;1.20;99.90
75210;DHT22;63796;53.136;14.882;2023-03-01T00:11:24;0.90;99.90
75210;DHT22;63796;53.136;14.882;2023-03-01T00:13:54;1.00;99.90
75210;DHT22;63796;53.136;14.882;2023-03-01T00:16:25;1.00;99.90
75210;DHT22;63796;53.136;14.882;2023-03-01T00:18:55;1.20;99.90
75210;DHT22;63796;53.136;14.882;2023-03-01T00:21:24;1.30;99.90
75210;DHT22;63796;53.136;14.882;2023-03-01T00:23:52;1.50;99.90
75210;DHT22;63796;53.136;14.882;2023-03-01T00:26:21;1.60;99.90
75210;DHT22;63796;53.136;14.882;2023-03-01T00:28:50;1.60;99.90
75210;DHT22;63796;53.136;14.882;2023-03-01T00:31:19;1.60;99.90
75210;DHT22;63796;53.136;14.882;2023-03-01T00:33:58;1.40;99.90
75210;DHT22;63796;53.136;14.882;2023-03-01T00:36:29;1.20;99.90
75210;DHT22;63796;53.136;14.882;2023-03-01T00:38:59;1.00;99.90
75210;DHT22;63796;53.136;14.882;2023-03-01T00:41:26;1.10;99.90
75210;DHT22;63796;53.136;14.882;2023-03-01T00:43:54;1.30;99.90
75210;DHT22;63796;53.136;14.882;2023-03-01T00:46:22;1.30;99.90
75210;DHT22;63796;53.136;14.882;2023-03-01T00:48:51;1.20;99.90
75210;DHT22;63796;53.136;14.882;2023-03-01T00:51:20;1.20;99.90
75210;DHT22;63796;53.136;14.882;2023-03-01T00:53:50;1.30;99.90
75210;DHT22;63796;53.136;14.882;2023-03-01T00:56:19;1.40;99.90
75210;DHT22;63796;53.136;14.882;2023-03-01T00:58:47;1.50;99.90
75210;DHT22;63796;53.136;14.882;2023-03-01T01:01:18;1.60;99.90
75210;DHT22;63796;53.136;14.882;2023-03-01T01:03:58;1.60;99.90
75210;DHT22;63796;53.136;14.882;2023-03-01T01:06:35;1.30;99.90
75210;DHT22;63796;53.136;14.882;2023-03-01T01:09:05;1.20;99.90
75210;DHT22;63796;53.136;14.882;2023-03-01T01:11:33;1.10;99.90
75210;DHT22;63796;53.136;14.882;2023-03-01T01:14:03;1.00;99.90
75210;DHT22;63796;53.136;14.882;2023-03-01T01:16:30;1.00;99.90
75210;DHT22;63796;53.136;14.882;2023-03-01T01:18:58;1.00;99.90
75210;DHT22;63796;53.136;14.882;2023-03-01T01:21:25;0.90;99.90
75210;DHT22;63796;53.136;14.882;2023-03-01T01:23:54;0.70;99.90
75210;DHT22;63796;53.136;14.882;2023-03-01T01:26:26;0.70;99.90
75210;DHT22;63796;53.136;14.882;2023-03-01T01:28:57;0.70;99.90
75210;DHT22;63796;53.136;14.882;2023-03-01T01:31:25;1.00;99.90
75210;DHT22;63796;53.136;14.882;2023-03-01T01:33:53;0.80;99.90
75210;DHT22;63796;53.136;14.882;2023-03-01T01:36:21;0.50;99.90
75210;DHT22;63796;53.136;14.882;2023-03-01T01:38:50;0.60;99.90
75210;DHT22;63796;53.136;14.882;2023-03-01T01:41:18;0.60;99.90
75210;DHT22;63796;53.136;14.882;2023-03-01T01:46:44;0.50;99.90
75210;DHT22;63796;53.136;14.882;2023-03-01T01:49:38;0.70;99.90
75210;DHT22;63796;53.136;14.882;2023-03-01T01:52:11;0.20;99.90
75210;DHT22;63796;53.136;14.882;2023-03-01T01:54:45;-0.20;99.90
75210;DHT22;63796;53.136;14.882;2023-03-01T01:57:16;-0.10;99.90
75210;DHT22;63796;53.136;14.882;2023-03-01T01:59:49;0.00;99.90
75210;DHT22;63796;53.136;14.882;2023-03-01T02:02:19;0.10;99.90
75210;DHT22;63796;53.136;14.882;2023-03-01T02:04:47;0.20;99.90
75210;DHT22;63796;53.136;14.882;2023-03-01T02:07:18;0.30;99.90
75210;DHT22;63796;53.136;14.882;2023-03-01T02:09:50;0.30;99.90
75210;DHT22;63796;53.136;14.882;2023-03-01T02:12:20;0.20;99.90
75210;DHT22;63796;53.136;14.882;2023-03-01T02:14:51;0.20;99.90
75210;DHT22;63796;53.136;14.882;2023-03-01T02:17:18;0.20;99.90
75210;DHT22;63796;53.136;14.882;2023-03-01T02:19:59;0.50;99.90
75210;DHT22;63796;53.136;14.882;2023-03-01T02:22:45;0.50;99.90
75210;DHT22;63796;53.136;14.882;2023-03-01T02:30:22;0.20;99.90
75210;DHT22;63796;53.136;14.882;2023-03-01T02:32:52;0.20;99.90
75210;DHT22;63796;53.136;14.882;2023-03-01T02:35:33;0.30;99.90
75210;DHT22;63796;53.136;14.882;2023-03-01T02:38:06;0.40;99.90
75210;DHT22;63796;53.136;14.882;2023-03-01T02:40:35;0.50;99.90
75210;DHT22;63796;53.136;14.882;2023-03-01T02:43:05;0.60;99.90
75210;DHT22;63796;53.136;14.882;2023-03-01T02:45:37;0.40;99.90
75210;DHT22;63796;53.136;14.882;2023-03-01T02:48:04;0.40;99.90
75210;DHT22;63796;53.136;14.882;2023-03-01T02:50:39;0.60;99.90
75210;DHT22;63796;53.136;14.882;2023-03-01T02:56:16;0.70;99.90
75210;DHT22;63796;53.136;14.882;2023-03-01T02:58:47;0.80;99.90
75210;DHT22;63796;53.136;14.882;2023-03-01T03:01:19;0.80;99.90
75210;DHT22;63796;53.136;14.882;2023-03-01T03:03:47;0.90;99.90
75210;DHT22;63796;53.136;14.882;2023-03-01T03:06:14;0.90;99.90
75210;DHT22;63796;53.136;14.882;2023-03-01T03:08:42;0.80;99.90
75210;DHT22;63796;53.136;14.882;2023-03-01T03:11:10;0.70;99.90
75210;DHT22;63796;53.136;14.882;2023-03-01T03:13:38;0.70;99.90
75210;DHT22;63796;53.136;14.882;2023-03-01T03:16:15;0.70;99.90
75210;DHT22;63796;53.136;14.882;2023-03-01T03:18:42;0.60;99.90
75210;DHT22;63796;53.136;14.882;2023-03-01T03:21:11;0.70;99.90
75210;DHT22;63796;53.136;14.882;2023-03-01T03:23:38;0.80;99.90
75210;DHT22;63796;53.136;14.882;2023-03-01T03:26:06;0.80;99.90
75210;DHT22;63796;53.136;14.882;2023-03-01T03:28:33;0.80;99.90
75210;DHT22;63796;53.136;14.882;2023-03-01T03:31:02;0.50;99.90
75210;DHT22;63796;53.136;14.882;2023-03-01T03:33:32;0.70;99.90
75210;DHT22;63796;53.136;14.882;2023-03-01T03:35:59;0.80;99.90
75210;DHT22;63796;53.136;14.882;2023-03-01T03:38:27;0.90;99.90
75210;DHT22;63796;53.136;14.882;2023-03-01T03:41:04;1.00;99.90
75210;DHT22;63796;53.136;14.882;2023-03-01T03:43:35;1.00;99.90
75210;DHT22;63796;53.136;14.882;2023-03-01T03:46:03;0.90;99.90
75210;DHT22;63796;53.136;14.882;2023-03-01T03:48:34;0.80;99.90
75210;DHT22;63796;53.136;14.882;2023-03-01T03:51:11;0.40;99.90
75210;DHT22;63796;53.136;14.882;2023-03-01T03:53:41;0.50;99.90
75210;DHT22;63796;53.136;14.882;2023-03-01T03:56:08;0.70;99.90
75210;DHT22;63796;53.136;14.882;2023-03-01T03:58:36;0.60;99.90
75210;DHT22;63796;53.136;14.882;2023-03-01T04:01:04;0.60;99.90
75210;DHT22;63796;53.136;14.882;2023-03-01T04:03:32;0.40;99.90
75210;DHT22;63796;53.136;14.882;2023-03-01T04:06:02;0.40;99.90
75210;DHT22;63796;53.136;14.882;2023-03-01T04:08:30;0.60;99.90
75210;DHT22;63796;53.136;14.882;2023-03-01T04:10:59;0.70;99.90
75210;DHT22;63796;53.136;14.882;2023-03-01T04:13:48;0.60;99.90
75210;DHT22;63796;53.136;14.882;2023-03-01T04:16:16;0.70;99.90
75210;DHT22;63796;53.136;14.882;2023-03-01T04:18:44;0.80;99.90
75210;DHT22;63796;53.136;14.882;2023-03-01T04:21:12;0.80;99.90
75210;DHT22;63796;53.136;14.882;2023-03-01T04:23:40;0.90;99.90
75210;DHT22;63796;53.136;14.882;2023-03-01T04:26:09;0.90;99.90
75210;DHT22;63796;53.136;14.882;2023-03-01T04:28:37;0.90;99.90
75210;DHT22;63796;53.136;14.882;2023-03-01T04:31:08;0.90;99.90
75210;DHT22;63796;53.136;14.882;2023-03-01T04:33:41;0.90;99.90
75210;DHT22;63796;53.136;14.882;2023-03-01T04:36:10;1.00;99.90
75210;DHT22;63796;53.136;14.882;2023-03-01T04:38:39;0.90;99.90
75210;DHT22;63796;53.136;14.882;2023-03-01T04:41:08;0.80;99.90
75210;DHT22;63796;53.136;14.882;2023-03-01T04:43:37;0.80;99.90
75210;DHT22;63796;53.136;14.882;2023-03-01T04:46:09;0.70;99.90
75210;DHT22;63796;53.136;14.882;2023-03-01T04:48:41;0.70;99.90
75210;DHT22;63796;53.136;14.882;2023-03-01T04:51:10;0.70;99.90
75210;DHT22;63796;53.136;14.882;2023-03-01T04:53:40;0.70;99.90
75210;DHT22;63796;53.136;14.882;2023-03-01T04:56:08;0.90;99.90
75210;DHT22;63796;53.136;14.882;2023-03-01T04:58:36;0.70;99.90
75210;DHT22;63796;53.136;14.882;2023-03-01T05:01:14;0.80;99.90
75210;DHT22;63796;53.136;14.882;2023-03-01T05:03:44;0.90;99.90
75210;DHT22;63796;53.136;14.882;2023-03-01T05:06:13;1.00;99.90
75210;DHT22;63796;53.136;14.882;2023-03-01T05:08:41;0.90;99.90
75210;DHT22;63796;53.136;14.882;2023-03-01T05:11:09;1.00;99.90
75210;DHT22;63796;53.136;14.882;2023-03-01T05:13:38;0.90;99.90
75210;DHT22;63796;53.136;14.882;2023-03-01T05:16:07;0.70;99.90
75210;DHT22;63796;53.136;14.882;2023-03-01T05:18:39;0.70;99.90
75210;DHT22;63796;53.136;14.882;2023-03-01T05:21:08;0.70;99.90
75210;DHT22;63796;53.136;14.882;2023-03-01T05:23:38;0.70;99.90
75210;DHT22;63796;53.136;14.882;2023-03-01T05:26:05;0.90;99.90
75210;DHT22;63796;53.136;14.882;2023-03-01T05:28:39;0.90;99.90
75210;DHT22;63796;53.136;14.882;2023-03-01T05:31:06;0.80;99.90
75210;DHT22;63796;53.136;14.882;2023-03-01T05:33:37;0.80;99.90
75210;DHT22;63796;53.136;14.882;2023-03-01T05:36:05;0.70;99.90
75210;DHT22;63796;53.136;14.882;2023-03-01T05:38:34;0.60;99.90
75210;DHT22;63796;53.136;14.882;2023-03-01T05:41:01;0.80;99.90
75210;DHT22;63796;53.136;14.882;2023-03-01T05:43:31;1.00;99.90
75210;DHT22;63796;53.136;14.882;2023-03-01T05:46:00;0.60;99.90
75210;DHT22;63796;53.136;14.882;2023-03-01T05:48:28;0.80;99.90
75210;DHT22;63796;53.136;14.882;2023-03-01T05:50:58;0.70;99.90
75210;DHT22;63796;53.136;14.882;2023-03-01T05:53:27;0.60;99.90
75210;DHT22;63796;53.136;14.882;2023-03-01T05:55:54;0.60;99.90
75210;DHT22;63796;53.136;14.882;2023-03-01T05:58:21;0.60;99.90
75210;DHT22;63796;53.136;14.882;2023-03-01T06:00:49;0.60;99.90
75210;DHT22;63796;53.136;14.882;2023-03-01T06:03:19;0.50;99.90
75210;DHT22;63796;53.136;14.882;2023-03-01T06:05:46;0.50;99.90
75210;DHT22;63796;53.136;14.882;2023-03-01T06:08:14;0.70;99.90
75210;DHT22;63796;53.136;14.882;2023-03-01T06:10:41;0.80;99.90
75210;DHT22;63796;53.136;14.882;2023-03-01T06:13:09;0.80;99.90
75210;DHT22;63796;53.136;14.882;2023-03-01T06:15:36;0.90;99.90
75210;DHT22;63796;53.136;14.882;2023-03-01T06:18:04;0.90;99.90
75210;DHT22;63796;53.136;14.882;2023-03-01T06:20:31;0.90;99.90
75210;DHT22;63796;53.136;14.882;2023-03-01T06:22:58;1.00;99.90
75210;DHT22;63796;53.136;14.882;2023-03-01T06:25:26;0.90;99.90
75210;DHT22;63796;53.136;14.882;2023-03-01T06:27:54;1.00;99.90
75210;DHT22;63796;53.136;14.882;2023-03-01T06:30:22;1.00;99.90
75210;DHT22;63796;53.136;14.882;2023-03-01T06:32:51;1.20;99.90
75210;DHT22;63796;53.136;14.882;2023-03-01T06:35:19;1.30;99.90
75210;DHT22;63796;53.136;14.882;2023-03-01T06:37:47;1.50;99.90
75210;DHT22;63796;53.136;14.882;2023-03-01T06:40:17;1.60;99.90
75210;DHT22;63796;53.136;14.882;2023-03-01T06:42:47;1.70;99.90
75210;DHT22;63796;53.136;14.882;2023-03-01T06:45:19;1.80;99.90
75210;DHT22;63796;53.136;14.882;2023-03-01T06:47:47;1.90;99.90
75210;DHT22;63796;53.136;14.882;2023-03-01T06:50:15;2.00;99.90
75210;DHT22;63796;53.136;14.882;2023-03-01T06:52:44;2.20;99.90
75210;DHT22;63796;53.136;14.882;2023-03-01T06:55:12;2.40;99.90
75210;DHT22;63796;53.136;14.882;2023-03-01T06:57:40;2.50;99.90
75210;DHT22;63796;53.136;14.882;2023-03-01T07:00:07;2.50;99.90
75210;DHT22;63796;53.136;14.882;2023-03-01T07:02:35;2.70;99.90
75210;DHT22;63796;53.136;14.882;2023-03-01T07:05:03;2.90;99.90
75210;DHT22;63796;53.136;14.882;2023-03-01T07:07:31;3.00;99.90
75210;DHT22;63796;53.136;14.882;2023-03-01T07:09:58;3.10;99.90
75210;DHT22;63796;53.136;14.882;2023-03-01T07:12:25;3.30;99.90
75210;DHT22;63796;53.136;14.882;2023-03-01T07:14:53;3.50;99.90
75210;DHT22;63796;53.136;14.882;2023-03-01T07:17:20;3.70;99.90
75210;DHT22;63796;53.136;14.882;2023-03-01T07:19:47;3.80;99.90
75210;DHT22;63796;53.136;14.882;2023-03-01T07:22:14;3.90;99.90
75210;DHT22;63796;53.136;14.882;2023-03-01T07:24:42;4.00;99.90
75210;DHT22;63796;53.136;14.882;2023-03-01T07:27:10;4.20;99.90
75210;DHT22;63796;53.136;14.882;2023-03-01T07:29:37;4.40;99.90
75210;DHT22;63796;53.136;14.882;2023-03-01T07:32:05;4.60;99.90
75210;DHT22;63796;53.136;14.882;2023-03-01T07:34:33;4.70;99.90
75210;DHT22;63796;53.136;14.882;2023-03-01T07:37:00;4.80;99.90
75210;DHT22;63796;53.136;14.882;2023-03-01T07:39:27;5.10;99.90
75210;DHT22;63796;53.136;14.882;2023-03-01T07:41:54;5.70;99.90
75210;DHT22;63796;53.136;14.882;2023-03-01T07:44:22;6.60;99.90
75210;DHT22;63796;53.136;14.882;2023-03-01T07:46:49;7.20;98.00
75210;DHT22;63796;53.136;14.882;2023-03-01T07:49:18;7.50;96.30
75210;DHT22;63796;53.136;14.882;2023-03-01T07:51:45;7.10;96.40
75210;DHT22;63796;53.136;14.882;2023-03-01T07:54:13;6.80;97.20
75210;DHT22;63796;53.136;14.882;2023-03-01T07:56:40;6.50;97.20
75210;DHT22;63796;53.136;14.882;2023-03-01T07:59:07;6.60;96.90
75210;DHT22;63796;53.136;14.882;2023-03-01T08:01:34;7.70;95.00
75210;DHT22;63796;53.136;14.882;2023-03-01T08:04:02;8.20;92.40
75210;DHT22;63796;53.136;14.882;2023-03-01T08:06:29;8.60;91.60
75210;DHT22;63796;53.136;14.882;2023-03-01T08:08:58;9.30;89.30
75210;DHT22;63796;53.136;14.882;2023-03-01T08:11:25;9.00;88.30
75210;DHT22;63796;53.136;14.882;2023-03-01T08:13:55;7.80;91.90
75210;DHT22;63796;53.136;14.882;2023-03-01T08:16:23;7.10;94.70
75210;DHT22;63796;53.136;14.882;2023-03-01T08:18:50;6.70;97.20
75210;DHT22;63796;53.136;14.882;2023-03-01T08:21:18;6.50;98.40
75210;DHT22;63796;53.136;14.882;2023-03-01T08:23:45;6.50;98.80
75210;DHT22;63796;53.136;14.882;2023-03-01T08:26:14;6.50;99.80
75210;DHT22;63796;53.136;14.882;2023-03-01T08:28:43;6.90;99.40
75210;DHT22;63796;53.136;14.882;2023-03-01T08:31:15;7.40;98.00
75210;DHT22;63796;53.136;14.882;2023-03-01T08:33:45;8.20;94.90
75210;DHT22;63796;53.136;14.882;2023-03-01T08:36:17;8.30;92.80
75210;DHT22;63796;53.136;14.882;2023-03-01T08:38:45;7.40;94.10
75210;DHT22;63796;53.136;14.882;2023-03-01T08:41:12;7.30;95.10
75210;DHT22;63796;53.136;14.882;2023-03-01T08:43:40;7.20;96.10
75210;DHT22;63796;53.136;14.882;2023-03-01T08:46:07;6.60;96.90
75210;DHT22;63796;53.136;14.882;2023-03-01T08:48:35;6.70;97.30
75210;DHT22;63796;53.136;14.882;2023-03-01T08:51:12;6.60;97.80
75210;DHT22;63796;53.136;14.882;2023-03-01T08:53:43;6.50;98.20
75210;DHT22;63796;53.136;14.882;2023-03-01T08:56:11;6.40;99.20
75210;DHT22;63796;53.136;14.882;2023-03-01T08:58:39;6.30;98.90
75210;DHT22;63796;53.136;14.882;2023-03-01T09:01:07;6.30;98.90
75210;DHT22;63796;53.136;14.882;2023-03-01T09:03:36;6.50;98.10
75210;DHT22;63796;53.136;14.882;2023-03-01T09:06:04;6.50;98.80
75210;DHT22;63796;53.136;14.882;2023-03-01T09:08:40;6.60;96.30
75210;DHT22;63796;53.136;14.882;2023-03-01T09:11:10;6.40;95.50
75210;DHT22;63796;53.136;14.882;2023-03-01T09:13:39;7.00;96.90
75210;DHT22;63796;53.136;14.882;2023-03-01T09:16:11;7.60;95.80
75210;DHT22;63796;53.136;14.882;2023-03-01T09:18:40;7.90;94.30
75210;DHT22;63796;53.136;14.882;2023-03-01T09:21:12;8.30;94.30
75210;DHT22;63796;53.136;14.882;2023-03-01T09:23:42;8.30;92.10
75210;DHT22;63796;53.136;14.882;2023-03-01T09:26:12;8.80;92.00
75210;DHT22;63796;53.136;14.882;2023-03-01T09:28:43;8.90;88.20
75210;DHT22;63796;53.136;14.882;2023-03-01T09:31:13;9.30;90.30
75210;DHT22;63796;53.136;14.882;2023-03-01T09:33:41;9.60;88.90
75210;DHT22;63796;53.136;14.882;2023-03-01T09:36:15;10.00;86.00
75210;DHT22;63796;53.136;14.882;2023-03-01T09:38:45;10.00;84.50
75210;DHT22;63796;53.136;14.882;2023-03-01T09:43:53;10.20;80.70
75210;DHT22;63796;53.136;14.882;2023-03-01T09:46:26;10.30;81.20
75210;DHT22;63796;53.136;14.882;2023-03-01T09:48:58;10.50;81.90
75210;DHT22;63796;53.136;14.882;2023-03-01T09:51:33;10.50;79.70
75210;DHT22;63796;53.136;14.882;2023-03-01T09:54:03;10.50;80.00
75210;DHT22;63796;53.136;14.882;2023-03-01T10:01:58;11.00;77.30
75210;DHT22;63796;53.136;14.882;2023-03-01T10:07:44;11.20;78.20
75210;DHT22;63796;53.136;14.882;2023-03-01T10:10:33;11.40;75.70
75210;DHT22;63796;53.136;14.882;2023-03-01T10:13:15;11.50;75.90
75210;DHT22;63796;53.136;14.882;2023-03-01T10:15:49;11.60;72.10
75210;DHT22;63796;53.136;14.882;2023-03-01T10:18:22;11.70;75.40
75210;DHT22;63796;53.136;14.882;2023-03-01T10:20:58;12.10;74.70
75210;DHT22;63796;53.136;14.882;2023-03-01T10:23:27;12.20;71.00
75210;DHT22;63796;53.136;14.882;2023-03-01T10:29:06;13.20;67.20
75210;DHT22;63796;53.136;14.882;2023-03-01T10:34:08;17.70;57.70
75210;DHT22;63796;53.136;14.882;2023-03-01T10:36:38;19.70;52.30
75210;DHT22;63796;53.136;14.882;2023-03-01T10:39:18;20.70;50.00
75210;DHT22;63796;53.136;14.882;2023-03-01T10:42:00;20.60;49.40
75210;DHT22;63796;53.136;14.882;2023-03-01T10:44:43;21.10;48.10
75210;DHT22;63796;53.136;14.882;2023-03-01T10:47:33;22.00;47.70
75210;DHT22;63796;53.136;14.882;2023-03-01T10:50:00;22.70;45.90
75210;DHT22;63796;53.136;14.882;2023-03-01T10:52:34;21.60;46.30
75210;DHT22;63796;53.136;14.882;2023-03-01T10:55:23;21.50;47.70
75210;DHT22;63796;53.136;14.882;2023-03-01T10:58:28;22.10;47.70
75210;DHT22;63796;53.136;14.882;2023-03-01T11:03:21;22.40;46.80
75210;DHT22;63796;53.136;14.882;2023-03-01T11:08:34;21.20;47.50
75210;DHT22;63796;53.136;14.882;2023-03-01T11:14:12;21.40;45.90
75210;DHT22;63796;53.136;14.882;2023-03-01T11:17:02;20.40;46.80
75210;DHT22;63796;53.136;14.882;2023-03-01T11:19:32;18.10;51.10
75210;DHT22;63796;53.136;14.882;2023-03-01T11:25:01;16.80;55.00
75210;DHT22;63796;53.136;14.882;2023-03-01T11:27:38;18.40;53.40
75210;DHT22;63796;53.136;14.882;2023-03-01T11:30:26;18.90;51.40
75210;DHT22;63796;53.136;14.882;2023-03-01T11:35:35;20.20;50.00
75210;DHT22;63796;53.136;14.882;2023-03-01T11:38:22;20.80;49.30
75210;DHT22;63796;53.136;14.882;2023-03-01T11:44:01;19.30;49.50
75210;DHT22;63796;53.136;14.882;2023-03-01T11:52:07;15.30;56.60
75210;DHT22;63796;53.136;14.882;2023-03-01T12:08:41;14.60;60.50
75210;DHT22;63796;53.136;14.882;2023-03-01T12:16:23;14.30;63.60
75210;DHT22;63796;53.136;14.882;2023-03-01T12:19:57;14.50;61.70
75210;DHT22;63796;53.136;14.882;2023-03-01T12:30:09;14.20;65.60
75210;DHT22;63796;53.136;14.882;2023-03-01T12:38:50;14.30;65.30
75210;DHT22;63796;53.136;14.882;2023-03-01T12:47:44;14.50;66.20
75210;DHT22;63796;53.136;14.882;2023-03-01T12:50:29;15.40;64.00
75210;DHT22;63796;53.136;14.882;2023-03-01T12:56:02;20.30;53.50
75210;DHT22;63796;53.136;14.882;2023-03-01T13:09:14;23.60;47.50
75210;DHT22;63796;53.136;14.882;2023-03-01T13:12:02;24.10;46.80
75210;DHT22;63796;53.136;14.882;2023-03-01T13:14:36;23.60;47.20
75210;DHT22;63796;53.136;14.882;2023-03-01T13:17:04;22.70;47.50
75210;DHT22;63796;53.136;14.882;2023-03-01T13:19:31;21.80;48.70
75210;DHT22;63796;53.136;14.882;2023-03-01T13:22:24;20.70;50.20
75210;DHT22;63796;53.136;14.882;2023-03-01T13:25:11;19.70;52.10
75210;DHT22;63796;53.136;14.882;2023-03-01T13:27:44;18.30;54.00
75210;DHT22;63796;53.136;14.882;2023-03-01T13:35:55;16.10;59.40
75210;DHT22;63796;53.136;14.882;2023-03-01T13:52:37;14.70;67.00
75210;DHT22;63796;53.136;14.882;2023-03-01T13:55:17;14.30;66.60
75210;DHT22;63796;53.136;14.882;2023-03-01T13:57:46;13.90;68.00
75210;DHT22;63796;53.136;14.882;2023-03-01T14:00:34;13.80;68.60
75210;DHT22;63796;53.136;14.882;2023-03-01T14:05:36;13.60;70.00
75210;DHT22;63796;53.136;14.882;2023-03-01T14:08:13;13.40;69.30
75210;DHT22;63796;53.136;14.882;2023-03-01T14:19:31;12.90;74.80
75210;DHT22;63796;53.136;14.882;2023-03-01T14:24:40;12.70;75.70
75210;DHT22;63796;53.136;14.882;2023-03-01T14:27:23;12.60;76.10
75210;DHT22;63796;53.136;14.882;2023-03-01T14:29:55;12.40;78.10
75210;DHT22;63796;53.136;14.882;2023-03-01T14:32:28;12.30;77.80
75210;DHT22;63796;53.136;14.882;2023-03-01T14:34:57;12.20;79.60
75210;DHT22;63796;53.136;14.882;2023-03-01T14:37:32;12.30;80.70
75210;DHT22;63796;53.136;14.882;2023-03-01T14:40:02;12.20;82.10
75210;DHT22;63796;53.136;14.882;2023-03-01T14:42:34;12.10;81.80
75210;DHT22;63796;53.136;14.882;2023-03-01T14:45:03;12.00;82.70
75210;DHT22;63796;53.136;14.882;2023-03-01T14:47:34;12.00;83.30
75210;DHT22;63796;53.136;14.882;2023-03-01T14:52:37;11.90;83.50
75210;DHT22;63796;53.136;14.882;2023-03-01T14:55:18;11.80;83.70
75210;DHT22;63796;53.136;14.882;2023-03-01T14:58:14;11.60;84.70
75210;DHT22;63796;53.136;14.882;2023-03-01T15:00:49;11.50;85.00
75210;DHT22;63796;53.136;14.882;2023-03-01T15:03:34;11.50;86.20
75210;DHT22;63796;53.136;14.882;2023-03-01T15:06:10;11.40;87.00
75210;DHT22;63796;53.136;14.882;2023-03-01T15:08:42;11.40;88.40
75210;DHT22;63796;53.136;14.882;2023-03-01T15:11:21;11.30;88.90
75210;DHT22;63796;53.136;14.882;2023-03-01T15:13:53;11.20;88.60
75210;DHT22;63796;53.136;14.882;2023-03-01T15:16:22;11.10;89.70
75210;DHT22;63796;53.136;14.882;2023-03-01T15:19:03;11.00;90.60
75210;DHT22;63796;53.136;14.882;2023-03-01T15:21:33;10.90;90.60
75210;DHT22;63796;53.136;14.882;2023-03-01T15:24:15;10.80;91.00
75210;DHT22;63796;53.136;14.882;2023-03-01T15:26:57;10.80;91.40
75210;DHT22;63796;53.136;14.882;2023-03-01T15:29:29;10.70;91.50
75210;DHT22;63796;53.136;14.882;2023-03-01T15:34:33;10.60;92.80
75210;DHT22;63796;53.136;14.882;2023-03-01T15:37:05;10.50;92.80
75210;DHT22;63796;53.136;14.882;2023-03-01T15:39:55;10.40;92.90
75210;DHT22;63796;53.136;14.882;2023-03-01T15:47:48;10.20;94.40
75210;DHT22;63796;53.136;14.882;2023-03-01T15:53:21;10.00;95.10
75210;DHT22;63796;53.136;14.882;2023-03-01T15:55:49;9.90;96.00
75210;DHT22;63796;53.136;14.882;2023-03-01T15:58:18;9.80;96.40
75210;DHT22;63796;53.136;14.882;2023-03-01T16:00:47;9.70;96.30
75210;DHT22;63796;53.136;14.882;2023-03-01T16:03:26;9.70;96.10
75210;DHT22;63796;53.136;14.882;2023-03-01T16:05:55;9.60;96.50
75210;DHT22;63796;53.136;14.882;2023-03-01T16:08:22;9.60;96.70
75210;DHT22;63796;53.136;14.882;2023-03-01T16:10:51;9.50;96.50
75210;DHT22;63796;53.136;14.882;2023-03-01T16:13:21;9.40;97.20
75210;DHT22;63796;53.136;14.882;2023-03-01T16:15:48;9.30;97.80
75210;DHT22;63796;53.136;14.882;2023-03-01T16:18:16;9.30;98.30
75210;DHT22;63796;53.136;14.882;2023-03-01T16:20:44;9.20;98.80
75210;DHT22;63796;53.136;14.882;2023-03-01T16:23:17;9.10;99.20
75210;DHT22;63796;53.136;14.882;2023-03-01T16:25:44;9.00;99.40
75210;DHT22;63796;53.136;14.882;2023-03-01T16:28:12;8.90;99.70
75210;DHT22;63796;53.136;14.882;2023-03-01T16:30:45;8.90;99.90
75210;DHT22;63796;53.136;14.882;2023-03-01T16:33:15;8.80;99.90
75210;DHT22;63796;53.136;14.882;2023-03-01T16:36:01;8.70;99.90
75210;DHT22;63796;53.136;14.882;2023-03-01T16:38:40;8.60;99.90
75210;DHT22;63796;53.136;14.882;2023-03-01T16:42:00;8.50;99.90
75210;DHT22;63796;53.136;14.882;2023-03-01T16:44:46;8.40;99.90
75210;DHT22;63796;53.136;14.882;2023-03-01T16:47:21;8.30;99.90
75210;DHT22;63796;53.136;14.882;2023-03-01T16:49:52;8.20;99.90
75210;DHT22;63796;53.136;14.882;2023-03-01T16:52:20;8.10;99.90
75210;DHT22;63796;53.136;14.882;2023-03-01T16:58:39;8.00;99.90
75210;DHT22;63796;53.136;14.882;2023-03-01T17:01:22;7.80;99.90
75210;DHT22;63796;53.136;14.882;2023-03-01T17:04:15;7.60;99.90
75210;DHT22;63796;53.136;14.882;2023-03-01T17:06:46;7.50;99.90
75210;DHT22;63796;53.136;14.882;2023-03-01T17:09:15;7.40;99.90
75210;DHT22;63796;53.136;14.882;2023-03-01T17:11:44;7.30;99.90
75210;DHT22;63796;53.136;14.882;2023-03-01T17:14:15;7.10;99.90
75210;DHT22;63796;53.136;14.882;2023-03-01T17:16:52;7.00;99.90
75210;DHT22;63796;53.136;14.882;2023-03-01T17:20:03;7.10;99.90
75210;DHT22;63796;53.136;14.882;2023-03-01T17:22:41;7.00;99.90
75210;DHT22;63796;53.136;14.882;2023-03-01T17:25:09;6.80;99.90
75210;DHT22;63796;53.136;14.882;2023-03-01T17:27:54;6.90;99.90
75210;DHT22;63796;53.136;14.882;2023-03-01T17:30:21;6.80;99.90
75210;DHT22;63796;53.136;14.882;2023-03-01T17:32:51;6.80;99.90
75210;DHT22;63796;53.136;14.882;2023-03-01T17:35:22;6.70;99.90
75210;DHT22;63796;53.136;14.882;2023-03-01T17:37:52;6.50;99.90
75210;DHT22;63796;53.136;14.882;2023-03-01T17:40:19;6.40;99.90
75210;DHT22;63796;53.136;14.882;2023-03-01T17:42:49;6.40;99.90
75210;DHT22;63796;53.136;14.882;2023-03-01T17:45:17;6.30;99.90
75210;DHT22;63796;53.136;14.882;2023-03-01T17:47:44;6.10;99.90
75210;DHT22;63796;53.136;14.882;2023-03-01T17:50:12;6.10;99.90
75210;DHT22;63796;53.136;14.882;2023-03-01T17:52:39;6.00;99.90
75210;DHT22;63796;53.136;14.882;2023-03-01T17:55:08;6.00;99.90
75210;DHT22;63796;53.136;14.882;2023-03-01T18:00:29;6.00;99.90
75210;DHT22;63796;53.136;14.882;2023-03-01T18:02:59;5.90;99.90
75210;DHT22;63796;53.136;14.882;2023-03-01T18:05:31;5.90;99.90
75210;DHT22;63796;53.136;14.882;2023-03-01T18:08:04;5.90;99.90
75210;DHT22;63796;53.136;14.882;2023-03-01T18:10:32;5.80;99.90
75210;DHT22;63796;53.136;14.882;2023-03-01T18:13:02;5.80;99.90
75210;DHT22;63796;53.136;14.882;2023-03-01T18:15:32;5.70;99.90
75210;DHT22;63796;53.136;14.882;2023-03-01T18:18:00;5.60;99.90
75210;DHT22;63796;53.136;14.882;2023-03-01T18:20:32;5.50;99.90
75210;DHT22;63796;53.136;14.882;2023-03-01T18:23:04;5.50;99.90
75210;DHT22;63796;53.136;14.882;2023-03-01T18:25:32;5.40;99.90
75210;DHT22;63796;53.136;14.882;2023-03-01T18:28:05;5.30;99.90
75210;DHT22;63796;53.136;14.882;2023-03-01T18:30:32;5.20;99.90
75210;DHT22;63796;53.136;14.882;2023-03-01T18:33:04;5.20;99.90